sensor_id;sensor_type;location;lat;lon;timestamp;P1;durP1;ratioP1;P2;durP2;ratioP2
61188;SDS011;47054;39.716;2.904;2023-06-10T00:01:39;26.23;;;8.60;;
61188;SDS011;47054;39.716;2.904;2023-06-10T00:04:25;29.10;;;8.65;;
61188;SDS011;47054;39.716;2.904;2023-06-10T00:07:11;36.58;;;9.07;;
61188;SDS011;47054;39.716;2.904;2023-06-10T00:09:56;33.72;;;9.20;;
61188;SDS011;47054;39.716;2.904;2023-06-10T00:12:41;32.92;;;8.60;;
61188;SDS011;47054;39.716;2.904;2023-06-10T00:15:26;28.05;;;9.10;;
61188;SDS011;47054;39.716;2.904;2023-06-10T00:18:11;37.17;;;9.02;;
61188;SDS011;47054;39.716;2.904;2023-06-10T00:20:56;29.25;;;8.95;;
61188;SDS011;47054;39.716;2.904;2023-06-10T00:23:47;51.30;;;10.88;;
61188;SDS011;47054;39.716;2.904;2023-06-10T00:26:33;30.52;;;8.27;;
61188;SDS011;47054;39.716;2.904;2023-06-10T00:29:17;28.13;;;8.00;;
61188;SDS011;47054;39.716;2.904;2023-06-10T00:32:03;35.40;;;8.38;;
61188;SDS011;47054;39.716;2.904;2023-06-10T00:34:48;29.33;;;8.65;;
61188;SDS011;47054;39.716;2.904;2023-06-10T00:37:33;28.60;;;8.38;;
61188;SDS011;47054;39.716;2.904;2023-06-10T00:40:19;26.88;;;8.75;;
61188;SDS011;47054;39.716;2.904;2023-06-10T00:43:04;47.00;;;10.40;;
61188;SDS011;47054;39.716;2.904;2023-06-10T00:45:49;35.15;;;9.10;;
61188;SDS011;47054;39.716;2.904;2023-06-10T00:48:35;24.27;;;8.93;;
61188;SDS011;47054;39.716;2.904;2023-06-10T00:51:20;33.55;;;8.55;;
61188;SDS011;47054;39.716;2.904;2023-06-10T00:54:06;37.35;;;9.50;;
61188;SDS011;47054;39.716;2.904;2023-06-10T00:56:52;41.35;;;10.50;;
61188;SDS011;47054;39.716;2.904;2023-06-10T00:59:37;30.33;;;9.43;;
61188;SDS011;47054;39.716;2.904;2023-06-10T01:02:23;40.00;;;10.13;;
61188;SDS011;47054;39.716;2.904;2023-06-10T01:05:09;34.08;;;9.65;;
61188;SDS011;47054;39.716;2.904;2023-06-10T01:10:57;34.42;;;9.73;;
61188;SDS011;47054;39.716;2.904;2023-06-10T01:13:45;37.65;;;9.18;;
61188;SDS011;47054;39.716;2.904;2023-06-10T01:16:30;41.10;;;9.75;;
61188;SDS011;47054;39.716;2.904;2023-06-10T01:19:15;38.85;;;9.85;;
61188;SDS011;47054;39.716;2.904;2023-06-10T01:22:02;40.05;;;9.80;;
61188;SDS011;47054;39.716;2.904;2023-06-10T01:24:47;36.97;;;10.05;;
61188;SDS011;47054;39.716;2.904;2023-06-10T01:27:35;30.13;;;9.57;;
61188;SDS011;47054;39.716;2.904;2023-06-10T01:30:25;27.90;;;8.85;;
61188;SDS011;47054;39.716;2.904;2023-06-10T01:33:13;30.67;;;8.82;;
61188;SDS011;47054;39.716;2.904;2023-06-10T01:36:01;39.95;;;9.70;;
61188;SDS011;47054;39.716;2.904;2023-06-10T01:38:47;30.95;;;9.50;;
61188;SDS011;47054;39.716;2.904;2023-06-10T01:41:34;26.40;;;8.52;;
61188;SDS011;47054;39.716;2.904;2023-06-10T01:44:20;32.63;;;9.15;;
61188;SDS011;47054;39.716;2.904;2023-06-10T01:47:06;29.63;;;8.50;;
61188;SDS011;47054;39.716;2.904;2023-06-10T01:49:51;28.75;;;8.05;;
61188;SDS011;47054;39.716;2.904;2023-06-10T01:52:35;36.85;;;9.38;;
61188;SDS011;47054;39.716;2.904;2023-06-10T01:55:21;35.85;;;9.90;;
61188;SDS011;47054;39.716;2.904;2023-06-10T01:58:06;41.03;;;9.07;;
61188;SDS011;47054;39.716;2.904;2023-06-10T02:00:50;29.92;;;9.05;;
61188;SDS011;47054;39.716;2.904;2023-06-10T02:03:35;39.60;;;9.95;;
61188;SDS011;47054;39.716;2.904;2023-06-10T02:06:20;43.40;;;8.75;;
61188;SDS011;47054;39.716;2.904;2023-06-10T02:09:05;33.90;;;8.73;;
61188;SDS011;47054;39.716;2.904;2023-06-10T02:11:50;27.42;;;7.90;;
61188;SDS011;47054;39.716;2.904;2023-06-10T02:14:34;29.15;;;7.97;;
61188;SDS011;47054;39.716;2.904;2023-06-10T02:17:19;29.58;;;9.35;;
61188;SDS011;47054;39.716;2.904;2023-06-10T02:20:04;32.17;;;8.43;;
61188;SDS011;47054;39.716;2.904;2023-06-10T02:22:51;36.40;;;9.10;;
61188;SDS011;47054;39.716;2.904;2023-06-10T02:25:35;29.88;;;10.10;;
61188;SDS011;47054;39.716;2.904;2023-06-10T02:28:20;34.30;;;10.43;;
61188;SDS011;47054;39.716;2.904;2023-06-10T02:31:04;51.67;;;11.50;;
61188;SDS011;47054;39.716;2.904;2023-06-10T02:33:49;42.25;;;11.30;;
61188;SDS011;47054;39.716;2.904;2023-06-10T02:36:34;39.72;;;11.05;;
61188;SDS011;47054;39.716;2.904;2023-06-10T02:39:21;44.22;;;11.07;;
61188;SDS011;47054;39.716;2.904;2023-06-10T02:42:06;38.22;;;11.13;;
61188;SDS011;47054;39.716;2.904;2023-06-10T02:44:51;40.42;;;11.98;;
61188;SDS011;47054;39.716;2.904;2023-06-10T02:47:47;43.30;;;12.18;;
61188;SDS011;47054;39.716;2.904;2023-06-10T02:50:31;40.92;;;11.57;;
61188;SDS011;47054;39.716;2.904;2023-06-10T02:53:31;40.20;;;12.13;;
61188;SDS011;47054;39.716;2.904;2023-06-10T02:56:22;43.17;;;12.00;;
61188;SDS011;47054;39.716;2.904;2023-06-10T02:59:07;44.95;;;12.05;;
61188;SDS011;47054;39.716;2.904;2023-06-10T03:01:52;45.60;;;12.60;;
61188;SDS011;47054;39.716;2.904;2023-06-10T03:04:39;52.72;;;13.55;;
61188;SDS011;47054;39.716;2.904;2023-06-10T03:07:30;38.17;;;13.07;;
61188;SDS011;47054;39.716;2.904;2023-06-10T03:10:17;46.47;;;12.13;;
61188;SDS011;47054;39.716;2.904;2023-06-10T03:13:02;50.55;;;12.52;;
61188;SDS011;47054;39.716;2.904;2023-06-10T03:15:47;33.17;;;11.75;;
61188;SDS011;47054;39.716;2.904;2023-06-10T03:18:35;32.53;;;12.00;;
61188;SDS011;47054;39.716;2.904;2023-06-10T03:21:22;55.58;;;13.45;;
61188;SDS011;47054;39.716;2.904;2023-06-10T03:24:07;48.38;;;12.98;;
61188;SDS011;47054;39.716;2.904;2023-06-10T03:26:53;41.22;;;11.50;;
61188;SDS011;47054;39.716;2.904;2023-06-10T03:29:37;37.00;;;11.32;;
61188;SDS011;47054;39.716;2.904;2023-06-10T03:32:23;50.58;;;11.88;;
61188;SDS011;47054;39.716;2.904;2023-06-10T03:35:09;45.33;;;12.23;;
61188;SDS011;47054;39.716;2.904;2023-06-10T03:37:54;42.97;;;12.13;;
61188;SDS011;47054;39.716;2.904;2023-06-10T03:40:39;46.72;;;11.65;;
61188;SDS011;47054;39.716;2.904;2023-06-10T03:43:24;45.17;;;12.75;;
61188;SDS011;47054;39.716;2.904;2023-06-10T03:46:10;32.40;;;12.27;;
61188;SDS011;47054;39.716;2.904;2023-06-10T03:48:56;36.30;;;12.38;;
61188;SDS011;47054;39.716;2.904;2023-06-10T03:51:41;37.03;;;12.32;;
61188;SDS011;47054;39.716;2.904;2023-06-10T03:54:26;46.45;;;12.55;;
61188;SDS011;47054;39.716;2.904;2023-06-10T03:57:11;45.00;;;11.48;;
61188;SDS011;47054;39.716;2.904;2023-06-10T03:59:55;28.60;;;9.73;;
61188;SDS011;47054;39.716;2.904;2023-06-10T04:02:41;38.95;;;11.98;;
61188;SDS011;47054;39.716;2.904;2023-06-10T04:05:34;40.95;;;11.10;;
61188;SDS011;47054;39.716;2.904;2023-06-10T04:08:18;30.15;;;8.60;;
61188;SDS011;47054;39.716;2.904;2023-06-10T04:11:04;27.33;;;8.07;;
61188;SDS011;47054;39.716;2.904;2023-06-10T04:13:49;28.67;;;7.25;;
61188;SDS011;47054;39.716;2.904;2023-06-10T04:16:35;16.83;;;5.97;;
61188;SDS011;47054;39.716;2.904;2023-06-10T04:19:20;14.73;;;5.70;;
61188;SDS011;47054;39.716;2.904;2023-06-10T04:22:06;19.38;;;6.20;;
61188;SDS011;47054;39.716;2.904;2023-06-10T04:24:51;21.70;;;6.43;;
61188;SDS011;47054;39.716;2.904;2023-06-10T04:27:36;18.30;;;6.57;;
61188;SDS011;47054;39.716;2.904;2023-06-10T04:30:21;23.00;;;6.90;;
61188;SDS011;47054;39.716;2.904;2023-06-10T04:33:07;49.55;;;17.42;;
61188;SDS011;47054;39.716;2.904;2023-06-10T04:35:54;56.00;;;18.20;;
61188;SDS011;47054;39.716;2.904;2023-06-10T04:38:41;30.75;;;7.35;;
61188;SDS011;47054;39.716;2.904;2023-06-10T04:41:27;19.70;;;7.18;;
61188;SDS011;47054;39.716;2.904;2023-06-10T04:44:12;27.48;;;7.95;;
61188;SDS011;47054;39.716;2.904;2023-06-10T04:46:58;22.92;;;7.05;;
61188;SDS011;47054;39.716;2.904;2023-06-10T04:49:43;22.55;;;6.95;;
61188;SDS011;47054;39.716;2.904;2023-06-10T04:52:27;31.02;;;10.20;;
61188;SDS011;47054;39.716;2.904;2023-06-10T04:55:12;42.45;;;10.98;;
61188;SDS011;47054;39.716;2.904;2023-06-10T04:57:56;35.33;;;10.38;;
61188;SDS011;47054;39.716;2.904;2023-06-10T05:00:41;43.85;;;11.90;;
61188;SDS011;47054;39.716;2.904;2023-06-10T05:03:26;29.17;;;10.25;;
61188;SDS011;47054;39.716;2.904;2023-06-10T05:06:10;40.90;;;11.02;;
61188;SDS011;47054;39.716;2.904;2023-06-10T05:08:55;31.20;;;9.77;;
61188;SDS011;47054;39.716;2.904;2023-06-10T05:11:39;30.95;;;9.48;;
61188;SDS011;47054;39.716;2.904;2023-06-10T05:14:24;29.17;;;8.75;;
61188;SDS011;47054;39.716;2.904;2023-06-10T05:17:09;35.28;;;8.75;;
61188;SDS011;47054;39.716;2.904;2023-06-10T05:19:53;33.35;;;8.23;;
61188;SDS011;47054;39.716;2.904;2023-06-10T05:22:38;30.30;;;7.85;;
61188;SDS011;47054;39.716;2.904;2023-06-10T05:25:22;20.27;;;6.93;;
61188;SDS011;47054;39.716;2.904;2023-06-10T05:28:07;25.48;;;7.13;;
61188;SDS011;47054;39.716;2.904;2023-06-10T05:30:54;27.35;;;7.78;;
61188;SDS011;47054;39.716;2.904;2023-06-10T05:33:39;23.80;;;7.53;;
61188;SDS011;47054;39.716;2.904;2023-06-10T05:36:24;25.08;;;8.63;;
61188;SDS011;47054;39.716;2.904;2023-06-10T05:39:10;23.90;;;6.10;;
61188;SDS011;47054;39.716;2.904;2023-06-10T05:41:54;28.55;;;6.70;;
61188;SDS011;47054;39.716;2.904;2023-06-10T05:44:39;28.52;;;5.90;;
61188;SDS011;47054;39.716;2.904;2023-06-10T05:47:24;19.05;;;5.93;;
61188;SDS011;47054;39.716;2.904;2023-06-10T05:50:09;24.80;;;5.88;;
61188;SDS011;47054;39.716;2.904;2023-06-10T05:52:54;22.88;;;6.63;;
61188;SDS011;47054;39.716;2.904;2023-06-10T05:55:39;28.58;;;7.40;;
61188;SDS011;47054;39.716;2.904;2023-06-10T05:58:24;22.27;;;6.00;;
61188;SDS011;47054;39.716;2.904;2023-06-10T06:01:09;32.55;;;8.50;;
61188;SDS011;47054;39.716;2.904;2023-06-10T06:03:53;27.08;;;7.40;;
61188;SDS011;47054;39.716;2.904;2023-06-10T06:06:38;30.27;;;7.05;;
61188;SDS011;47054;39.716;2.904;2023-06-10T06:09:24;27.27;;;6.97;;
61188;SDS011;47054;39.716;2.904;2023-06-10T06:12:09;35.28;;;9.18;;
61188;SDS011;47054;39.716;2.904;2023-06-10T06:14:55;34.55;;;10.20;;
61188;SDS011;47054;39.716;2.904;2023-06-10T06:17:39;39.33;;;9.73;;
61188;SDS011;47054;39.716;2.904;2023-06-10T06:20:24;34.40;;;10.07;;
61188;SDS011;47054;39.716;2.904;2023-06-10T06:23:08;37.20;;;10.05;;
61188;SDS011;47054;39.716;2.904;2023-06-10T06:25:54;35.53;;;8.75;;
61188;SDS011;47054;39.716;2.904;2023-06-10T06:28:39;34.88;;;10.82;;
61188;SDS011;47054;39.716;2.904;2023-06-10T06:31:24;42.28;;;10.63;;
61188;SDS011;47054;39.716;2.904;2023-06-10T06:34:09;37.72;;;10.63;;
61188;SDS011;47054;39.716;2.904;2023-06-10T06:36:53;27.52;;;8.57;;
61188;SDS011;47054;39.716;2.904;2023-06-10T06:39:38;36.88;;;10.48;;
61188;SDS011;47054;39.716;2.904;2023-06-10T06:42:22;44.30;;;9.48;;
61188;SDS011;47054;39.716;2.904;2023-06-10T06:45:33;48.53;;;9.75;;
61188;SDS011;47054;39.716;2.904;2023-06-10T06:48:18;40.05;;;10.18;;
61188;SDS011;47054;39.716;2.904;2023-06-10T06:51:03;27.98;;;8.80;;
61188;SDS011;47054;39.716;2.904;2023-06-10T06:53:47;26.75;;;8.70;;
61188;SDS011;47054;39.716;2.904;2023-06-10T06:56:34;34.17;;;9.23;;
61188;SDS011;47054;39.716;2.904;2023-06-10T06:59:19;39.72;;;9.23;;
61188;SDS011;47054;39.716;2.904;2023-06-10T07:02:03;27.48;;;8.82;;
61188;SDS011;47054;39.716;2.904;2023-06-10T07:04:48;30.88;;;7.80;;
61188;SDS011;47054;39.716;2.904;2023-06-10T07:07:33;34.25;;;8.65;;
61188;SDS011;47054;39.716;2.904;2023-06-10T07:10:18;36.17;;;8.80;;
61188;SDS011;47054;39.716;2.904;2023-06-10T07:13:06;32.08;;;8.25;;
61188;SDS011;47054;39.716;2.904;2023-06-10T07:15:50;29.92;;;8.30;;
61188;SDS011;47054;39.716;2.904;2023-06-10T07:18:34;35.63;;;8.55;;
61188;SDS011;47054;39.716;2.904;2023-06-10T07:21:19;27.05;;;7.93;;
61188;SDS011;47054;39.716;2.904;2023-06-10T07:24:04;34.30;;;8.38;;
61188;SDS011;47054;39.716;2.904;2023-06-10T07:26:48;22.17;;;7.03;;
61188;SDS011;47054;39.716;2.904;2023-06-10T07:29:33;27.05;;;9.13;;
61188;SDS011;47054;39.716;2.904;2023-06-10T07:32:19;26.75;;;7.63;;
61188;SDS011;47054;39.716;2.904;2023-06-10T07:35:08;29.70;;;7.90;;
61188;SDS011;47054;39.716;2.904;2023-06-10T07:37:55;38.88;;;8.15;;
61188;SDS011;47054;39.716;2.904;2023-06-10T07:40:39;31.77;;;8.27;;
61188;SDS011;47054;39.716;2.904;2023-06-10T07:43:24;40.90;;;8.63;;
61188;SDS011;47054;39.716;2.904;2023-06-10T07:46:09;24.33;;;8.43;;
61188;SDS011;47054;39.716;2.904;2023-06-10T07:48:53;30.02;;;6.60;;
61188;SDS011;47054;39.716;2.904;2023-06-10T07:51:38;22.67;;;6.28;;
61188;SDS011;47054;39.716;2.904;2023-06-10T07:54:23;22.45;;;6.72;;
61188;SDS011;47054;39.716;2.904;2023-06-10T07:57:07;23.65;;;7.00;;
61188;SDS011;47054;39.716;2.904;2023-06-10T07:59:52;28.55;;;6.60;;
61188;SDS011;47054;39.716;2.904;2023-06-10T08:02:37;16.17;;;6.35;;
61188;SDS011;47054;39.716;2.904;2023-06-10T19:26:11;22.10;;;5.07;;
61188;SDS011;47054;39.716;2.904;2023-06-10T19:28:56;20.40;;;5.53;;
61188;SDS011;47054;39.716;2.904;2023-06-10T19:31:40;27.55;;;5.50;;
61188;SDS011;47054;39.716;2.904;2023-06-10T19:34:25;31.25;;;6.80;;
61188;SDS011;47054;39.716;2.904;2023-06-10T19:37:11;24.75;;;5.18;;
61188;SDS011;47054;39.716;2.904;2023-06-10T19:39:55;26.02;;;5.70;;
61188;SDS011;47054;39.716;2.904;2023-06-10T19:42:40;18.45;;;5.68;;
61188;SDS011;47054;39.716;2.904;2023-06-10T19:45:25;25.45;;;6.70;;
61188;SDS011;47054;39.716;2.904;2023-06-10T19:48:09;24.52;;;5.55;;
61188;SDS011;47054;39.716;2.904;2023-06-10T19:50:54;29.70;;;5.95;;
61188;SDS011;47054;39.716;2.904;2023-06-10T19:53:39;28.38;;;5.70;;
61188;SDS011;47054;39.716;2.904;2023-06-10T19:56:24;29.83;;;5.78;;
61188;SDS011;47054;39.716;2.904;2023-06-10T19:59:09;32.47;;;5.97;;
61188;SDS011;47054;39.716;2.904;2023-06-10T20:01:53;27.50;;;6.20;;
61188;SDS011;47054;39.716;2.904;2023-06-10T20:04:38;29.52;;;5.53;;
61188;SDS011;47054;39.716;2.904;2023-06-10T20:07:23;28.88;;;5.50;;
61188;SDS011;47054;39.716;2.904;2023-06-10T20:10:08;31.92;;;5.75;;
61188;SDS011;47054;39.716;2.904;2023-06-10T20:12:53;22.92;;;5.50;;
61188;SDS011;47054;39.716;2.904;2023-06-10T20:15:38;38.88;;;5.90;;
61188;SDS011;47054;39.716;2.904;2023-06-10T20:18:23;22.05;;;5.65;;
61188;SDS011;47054;39.716;2.904;2023-06-10T20:21:08;17.02;;;5.30;;
61188;SDS011;47054;39.716;2.904;2023-06-10T20:23:52;40.28;;;6.43;;
61188;SDS011;47054;39.716;2.904;2023-06-10T20:26:38;18.80;;;5.30;;
61188;SDS011;47054;39.716;2.904;2023-06-10T20:29:22;34.08;;;7.28;;
61188;SDS011;47054;39.716;2.904;2023-06-10T20:35:26;20.48;;;5.85;;
61188;SDS011;47054;39.716;2.904;2023-06-10T20:38:11;27.33;;;6.28;;
61188;SDS011;47054;39.716;2.904;2023-06-10T20:40:56;32.10;;;6.40;;
61188;SDS011;47054;39.716;2.904;2023-06-10T20:43:42;34.75;;;6.85;;
61188;SDS011;47054;39.716;2.904;2023-06-10T20:46:26;29.65;;;5.90;;
61188;SDS011;47054;39.716;2.904;2023-06-10T20:49:11;29.13;;;5.65;;
61188;SDS011;47054;39.716;2.904;2023-06-10T20:51:55;22.83;;;5.70;;
61188;SDS011;47054;39.716;2.904;2023-06-10T20:54:40;27.80;;;5.88;;
61188;SDS011;47054;39.716;2.904;2023-06-10T20:57:25;26.38;;;5.95;;
61188;SDS011;47054;39.716;2.904;2023-06-10T21:00:10;23.88;;;6.82;;
61188;SDS011;47054;39.716;2.904;2023-06-10T21:02:55;33.63;;;6.30;;
61188;SDS011;47054;39.716;2.904;2023-06-10T21:05:40;29.63;;;6.35;;
61188;SDS011;47054;39.716;2.904;2023-06-10T21:08:25;22.95;;;5.72;;
61188;SDS011;47054;39.716;2.904;2023-06-10T21:11:10;37.92;;;7.07;;
61188;SDS011;47054;39.716;2.904;2023-06-10T21:13:55;30.45;;;6.60;;
61188;SDS011;47054;39.716;2.904;2023-06-10T21:16:39;25.17;;;5.80;;
61188;SDS011;47054;39.716;2.904;2023-06-10T21:19:24;29.90;;;7.22;;
61188;SDS011;47054;39.716;2.904;2023-06-10T21:22:09;36.10;;;7.30;;
61188;SDS011;47054;39.716;2.904;2023-06-10T21:24:55;38.78;;;7.80;;
61188;SDS011;47054;39.716;2.904;2023-06-10T21:27:40;40.50;;;7.15;;
61188;SDS011;47054;39.716;2.904;2023-06-10T21:30:24;26.63;;;7.00;;
61188;SDS011;47054;39.716;2.904;2023-06-10T21:33:12;38.47;;;6.72;;
61188;SDS011;47054;39.716;2.904;2023-06-10T21:35:57;35.05;;;6.18;;
61188;SDS011;47054;39.716;2.904;2023-06-10T21:42:44;28.23;;;6.53;;
61188;SDS011;47054;39.716;2.904;2023-06-10T21:45:34;37.88;;;7.00;;
61188;SDS011;47054;39.716;2.904;2023-06-10T21:48:19;33.78;;;7.30;;
61188;SDS011;47054;39.716;2.904;2023-06-10T21:51:05;34.30;;;7.05;;
61188;SDS011;47054;39.716;2.904;2023-06-10T21:53:51;29.00;;;6.65;;
61188;SDS011;47054;39.716;2.904;2023-06-10T21:59:48;28.63;;;6.43;;
61188;SDS011;47054;39.716;2.904;2023-06-10T22:16:19;34.88;;;7.93;;
61188;SDS011;47054;39.716;2.904;2023-06-10T22:19:03;32.40;;;7.30;;
61188;SDS011;47054;39.716;2.904;2023-06-10T22:21:49;31.25;;;7.38;;
61188;SDS011;47054;39.716;2.904;2023-06-10T22:24:38;29.20;;;6.85;;
61188;SDS011;47054;39.716;2.904;2023-06-10T22:27:24;41.45;;;7.22;;
61188;SDS011;47054;39.716;2.904;2023-06-10T22:30:10;30.40;;;7.95;;
61188;SDS011;47054;39.716;2.904;2023-06-10T22:32:58;41.10;;;7.40;;
61188;SDS011;47054;39.716;2.904;2023-06-10T22:35:44;43.15;;;7.93;;
61188;SDS011;47054;39.716;2.904;2023-06-10T22:38:29;32.60;;;7.60;;
61188;SDS011;47054;39.716;2.904;2023-06-10T22:41:14;36.15;;;7.43;;
61188;SDS011;47054;39.716;2.904;2023-06-10T22:43:59;34.35;;;7.68;;
61188;SDS011;47054;39.716;2.904;2023-06-10T22:46:44;36.33;;;6.88;;
61188;SDS011;47054;39.716;2.904;2023-06-10T22:49:29;27.00;;;7.35;;
61188;SDS011;47054;39.716;2.904;2023-06-10T22:52:15;35.63;;;8.43;;
61188;SDS011;47054;39.716;2.904;2023-06-10T22:55:00;38.78;;;7.80;;
61188;SDS011;47054;39.716;2.904;2023-06-10T22:57:44;41.78;;;8.55;;
61188;SDS011;47054;39.716;2.904;2023-06-10T23:00:30;49.40;;;8.25;;
61188;SDS011;47054;39.716;2.904;2023-06-10T23:03:15;38.40;;;7.80;;
61188;SDS011;47054;39.716;2.904;2023-06-10T23:06:00;39.10;;;7.47;;
61188;SDS011;47054;39.716;2.904;2023-06-10T23:08:46;39.60;;;7.95;;
61188;SDS011;47054;39.716;2.904;2023-06-10T23:11:30;37.03;;;7.93;;
61188;SDS011;47054;39.716;2.904;2023-06-10T23:14:15;38.83;;;8.05;;
61188;SDS011;47054;39.716;2.904;2023-06-10T23:17:00;42.85;;;7.88;;
61188;SDS011;47054;39.716;2.904;2023-06-10T23:19:45;36.67;;;7.97;;
61188;SDS011;47054;39.716;2.904;2023-06-10T23:22:31;43.83;;;8.23;;
61188;SDS011;47054;39.716;2.904;2023-06-10T23:25:17;30.50;;;6.82;;
61188;SDS011;47054;39.716;2.904;2023-06-10T23:28:06;29.30;;;7.60;;
61188;SDS011;47054;39.716;2.904;2023-06-10T23:30:53;37.35;;;7.85;;
61188;SDS011;47054;39.716;2.904;2023-06-10T23:33:39;45.95;;;8.40;;
61188;SDS011;47054;39.716;2.904;2023-06-10T23:36:24;31.83;;;7.68;;
61188;SDS011;47054;39.716;2.904;2023-06-10T23:39:09;34.92;;;7.47;;
61188;SDS011;47054;39.716;2.904;2023-06-10T23:41:55;30.35;;;6.85;;
61188;SDS011;47054;39.716;2.904;2023-06-10T23:44:41;31.08;;;6.93;;
61188;SDS011;47054;39.716;2.904;2023-06-10T23:47:26;32.78;;;7.32;;
61188;SDS011;47054;39.716;2.904;2023-06-10T23:50:10;19.25;;;6.55;;
61188;SDS011;47054;39.716;2.904;2023-06-10T23:52:56;23.20;;;6.65;;
61188;SDS011;47054;39.716;2.904;2023-06-10T23:55:41;30.50;;;7.70;;
61188;SDS011;47054;39.716;2.904;2023-06-10T23:58:26;47.75;;;6.55;;
